createdAt,value
2023-08-08T00:00:12.158Z,54.35
2023-08-08T00:02:13.736Z,54.24
2023-08-08T00:04:15.471Z,54.04
2023-08-08T00:06:17.149Z,54.25
2023-08-08T00:08:18.734Z,54.18
2023-08-08T00:10:20.387Z,54.35
2023-08-08T00:12:21.963Z,54.26
2023-08-08T00:14:23.661Z,53.98
2023-08-08T00:16:25.410Z,54.01
2023-08-08T00:18:27.056Z,54.28
2023-08-08T00:20:29.123Z,54.13
2023-08-08T00:22:30.963Z,54.13
2023-08-08T00:24:33.032Z,53.86
2023-08-08T00:26:34.849Z,53.95
2023-08-08T00:28:36.451Z,54.17
2023-08-08T00:30:38.106Z,53.97
2023-08-08T00:32:40.195Z,54.14
2023-08-08T00:34:41.866Z,54.51
2023-08-08T00:36:43.429Z,54.33
2023-08-08T00:38:44.958Z,54.07
2023-08-08T00:40:46.695Z,53.92
2023-08-08T00:42:48.356Z,53.76
2023-08-08T00:44:49.999Z,54.13
2023-08-08T00:46:52.225Z,54.03
2023-08-08T00:48:53.999Z,53.96
2023-08-08T00:50:55.795Z,54.11
2023-08-08T00:52:57.569Z,53.96
2023-08-08T00:55:00.361Z,54.12
2023-08-08T00:57:02.268Z,54.01
2023-08-08T00:59:04.301Z,54.20
2023-08-08T01:01:06.015Z,54.14
2023-08-08T01:03:07.865Z,54.02
2023-08-08T01:05:10.242Z,54.16
2023-08-08T01:07:39.835Z,54.19
2023-08-08T01:09:51.611Z,54.23
2023-08-08T01:11:54.113Z,54.20
2023-08-08T01:13:56.979Z,54.27
2023-08-08T01:15:59.024Z,54.17
2023-08-08T01:18:00.790Z,54.29
2023-08-08T01:20:05.519Z,54.31
2023-08-08T01:22:15.399Z,54.06
2023-08-08T01:24:19.091Z,54.05
2023-08-08T01:26:22.693Z,54.41
2023-08-08T01:28:25.136Z,54.38
2023-08-08T01:30:26.683Z,54.47
2023-08-08T01:32:28.693Z,54.18
2023-08-08T01:34:30.725Z,54.47
2023-08-08T01:36:43.505Z,54.35
2023-08-08T01:38:49.858Z,54.41
2023-08-08T01:40:51.844Z,54.33
2023-08-08T01:42:54.456Z,54.40
2023-08-08T01:44:56.972Z,54.26
2023-08-08T01:46:58.623Z,54.50
2023-08-08T01:49:00.931Z,54.39
2023-08-08T01:51:02.549Z,54.67
2023-08-08T01:53:04.986Z,54.41
2023-08-08T01:55:07.532Z,54.42
2023-08-08T01:57:09.231Z,54.37
2023-08-08T01:59:10.795Z,54.29
2023-08-08T02:01:12.468Z,54.08
2023-08-08T02:03:14.375Z,54.27
2023-08-08T02:05:16.157Z,54.69
2023-08-08T02:07:18.234Z,54.58
2023-08-08T02:09:21.944Z,54.57
2023-08-08T02:11:24.015Z,54.72
2023-08-08T02:13:25.671Z,54.70
2023-08-08T02:15:27.310Z,54.62
2023-08-08T02:17:30.162Z,54.58
2023-08-08T02:19:31.858Z,54.43
2023-08-08T02:21:33.529Z,54.75
2023-08-08T02:23:35.447Z,54.50
2023-08-08T02:25:37.002Z,54.43
2023-08-08T02:27:38.555Z,54.54
2023-08-08T02:29:40.251Z,54.36
2023-08-08T02:31:41.968Z,54.71
2023-08-08T02:33:43.627Z,54.48
2023-08-08T02:35:45.234Z,54.39
2023-08-08T02:37:46.898Z,54.58
2023-08-08T02:39:48.645Z,54.55
2023-08-08T02:41:50.247Z,54.19
2023-08-08T02:43:51.987Z,54.26
2023-08-08T02:45:53.562Z,54.77
2023-08-08T02:47:55.219Z,54.52
2023-08-08T02:49:57.006Z,54.48
2023-08-08T02:51:58.854Z,54.66
2023-08-08T02:54:00.720Z,54.57
2023-08-08T02:56:02.396Z,54.59
2023-08-08T02:58:04.110Z,54.43
2023-08-08T03:00:06.401Z,54.70
2023-08-08T03:02:08.086Z,54.57
2023-08-08T03:04:09.991Z,54.66
2023-08-08T03:06:12.584Z,54.67
2023-08-08T03:08:14.245Z,54.72
2023-08-08T03:10:16.660Z,54.69
2023-08-08T03:12:18.434Z,54.62
2023-08-08T03:14:20.033Z,54.70
2023-08-08T03:16:21.805Z,55.04
2023-08-08T03:18:24.077Z,54.45
2023-08-08T03:20:25.824Z,54.55
2023-08-08T03:22:27.637Z,54.64
2023-08-08T03:24:29.315Z,54.71
2023-08-08T03:26:30.860Z,54.62
2023-08-08T03:28:32.674Z,54.70
2023-08-08T03:30:34.215Z,54.74
2023-08-08T03:32:35.964Z,54.65
2023-08-08T03:34:37.645Z,54.68
2023-08-08T03:36:41.010Z,54.85
2023-08-08T03:38:46.719Z,54.93
2023-08-08T03:40:48.787Z,54.74
2023-08-08T03:42:50.582Z,54.98
2023-08-08T03:44:52.262Z,54.81
2023-08-08T03:46:59.437Z,54.92
2023-08-08T03:49:07.449Z,54.97
2023-08-08T03:51:09.018Z,54.76
2023-08-08T03:53:10.594Z,54.81
2023-08-08T03:55:12.569Z,55.16
2023-08-08T03:57:14.259Z,54.83
2023-08-08T03:59:15.949Z,55.07
2023-08-08T04:01:17.694Z,54.80
2023-08-08T04:03:19.422Z,54.96
2023-08-08T04:05:21.133Z,55.14
2023-08-08T04:07:22.753Z,54.87
2023-08-08T04:09:24.353Z,54.85
2023-08-08T04:11:25.934Z,55.13
2023-08-08T04:13:27.549Z,54.71
2023-08-08T04:15:29.637Z,54.72
2023-08-08T04:17:31.309Z,55.03
2023-08-08T04:19:33.120Z,54.98
2023-08-08T04:21:34.834Z,55.06
2023-08-08T04:23:36.457Z,54.93
2023-08-08T04:25:38.034Z,54.80
2023-08-08T04:27:39.617Z,55.10
2023-08-08T04:29:41.275Z,54.97
2023-08-08T04:31:42.940Z,54.80
2023-08-08T04:33:44.536Z,54.93
2023-08-08T04:35:46.296Z,54.94
2023-08-08T04:37:48.071Z,55.01
2023-08-08T04:39:49.687Z,55.06
2023-08-08T04:41:51.399Z,54.97
2023-08-08T04:43:53.015Z,55.16
2023-08-08T04:45:54.782Z,55.07
2023-08-08T04:47:56.811Z,55.14
2023-08-08T04:49:58.622Z,54.95
2023-08-08T04:52:00.599Z,55.47
2023-08-08T04:54:02.415Z,54.93
2023-08-08T04:56:04.504Z,54.97
2023-08-08T04:58:06.265Z,55.16
2023-08-08T05:00:09.736Z,54.86
2023-08-08T05:02:11.416Z,55.17
2023-08-08T05:04:13.074Z,55.14
2023-08-08T05:06:14.816Z,55.34
2023-08-08T05:08:16.700Z,55.23
2023-08-08T05:10:18.445Z,55.17
2023-08-08T05:12:20.422Z,55.14
2023-08-08T05:14:22.080Z,55.17
2023-08-08T05:16:25.276Z,55.08
2023-08-08T05:18:26.853Z,55.18
2023-08-08T05:20:28.508Z,55.11
2023-08-08T05:22:30.237Z,55.00
2023-08-08T05:24:31.910Z,55.02
2023-08-08T05:26:33.532Z,55.18
2023-08-08T05:28:35.256Z,54.99
2023-08-08T05:30:36.974Z,55.05
2023-08-08T05:32:38.604Z,55.34
2023-08-08T05:34:40.225Z,55.13
2023-08-08T05:36:41.906Z,55.27
2023-08-08T05:38:43.580Z,55.30
2023-08-08T05:40:45.228Z,55.35
2023-08-08T05:42:46.920Z,55.34
2023-08-08T05:44:48.506Z,55.55
2023-08-08T05:46:50.353Z,55.58
2023-08-08T05:48:52.129Z,55.44
2023-08-08T05:50:53.884Z,55.67
2023-08-08T05:52:55.785Z,55.55
2023-08-08T05:55:00.136Z,55.82
2023-08-08T05:57:03.872Z,55.62
2023-08-08T05:59:05.702Z,55.64
2023-08-08T06:01:10.376Z,55.68
2023-08-08T06:03:12.420Z,55.50
2023-08-08T06:05:14.105Z,55.48
2023-08-08T06:07:15.844Z,55.69
2023-08-08T06:09:18.120Z,55.77
2023-08-08T06:11:19.990Z,55.71
2023-08-08T06:13:21.599Z,55.79
2023-08-08T06:15:24.200Z,55.91
2023-08-08T06:17:25.837Z,55.82
2023-08-08T06:19:27.665Z,55.77
2023-08-08T06:21:29.350Z,55.65
2023-08-08T06:23:30.992Z,55.48
2023-08-08T06:25:32.686Z,55.84
2023-08-08T06:27:34.402Z,55.38
2023-08-08T06:29:36.118Z,55.58
2023-08-08T06:31:37.985Z,55.56
2023-08-08T06:33:39.607Z,55.66
2023-08-08T06:35:41.227Z,55.63
2023-08-08T06:37:43.172Z,55.75
2023-08-08T06:39:44.856Z,55.50
2023-08-08T06:41:46.418Z,55.42
2023-08-08T06:43:48.114Z,55.66
2023-08-08T06:45:49.827Z,55.46
2023-08-08T06:47:51.775Z,55.58
2023-08-08T06:49:53.511Z,55.55
2023-08-08T06:51:55.114Z,55.42
2023-08-08T06:53:56.913Z,55.46
2023-08-08T06:55:58.492Z,55.67
2023-08-08T06:58:00.132Z,55.60
2023-08-08T07:00:02.211Z,55.37
2023-08-08T07:02:04.458Z,55.54
2023-08-08T07:04:06.696Z,55.10
2023-08-08T07:06:08.486Z,55.57
2023-08-08T07:08:10.135Z,55.71
2023-08-08T07:10:13.738Z,55.59
2023-08-08T07:12:15.526Z,55.26
2023-08-08T07:14:17.127Z,55.49
2023-08-08T07:16:18.834Z,55.46
2023-08-08T07:18:20.551Z,55.34
2023-08-08T07:20:22.290Z,55.26
2023-08-08T07:22:24.386Z,55.46
2023-08-08T07:24:29.751Z,55.31
2023-08-08T07:26:31.467Z,55.32
2023-08-08T07:28:34.111Z,55.37
2023-08-08T07:30:36.525Z,55.29
2023-08-08T07:32:38.200Z,55.40
2023-08-08T07:34:39.906Z,55.17
2023-08-08T07:36:41.538Z,55.16
2023-08-08T07:38:43.182Z,55.28
2023-08-08T07:40:45.935Z,55.29
2023-08-08T07:42:50.066Z,55.25
2023-08-08T07:44:51.716Z,55.19
2023-08-08T07:46:53.338Z,55.04
2023-08-08T07:48:55.005Z,55.04
2023-08-08T07:50:56.694Z,55.10
2023-08-08T07:52:58.380Z,55.12
2023-08-08T07:54:59.973Z,54.96
2023-08-08T07:57:01.576Z,55.10
2023-08-08T07:59:04.236Z,54.99
2023-08-08T08:01:08.164Z,54.95
2023-08-08T08:03:10.078Z,54.93
2023-08-08T08:05:12.671Z,55.10
2023-08-08T08:07:14.380Z,54.88
2023-08-08T08:09:16.452Z,54.95
2023-08-08T08:11:18.171Z,54.83
2023-08-08T08:13:20.044Z,54.72
2023-08-08T08:15:21.656Z,54.81
2023-08-08T08:17:23.289Z,54.94
2023-08-08T08:19:24.838Z,54.75
2023-08-08T08:21:26.434Z,54.66
2023-08-08T08:23:28.037Z,54.84
2023-08-08T08:25:29.734Z,54.60
2023-08-08T08:27:31.270Z,54.65
2023-08-08T08:29:34.217Z,54.50
2023-08-08T08:31:35.999Z,54.55
2023-08-08T08:33:37.687Z,54.85
2023-08-08T08:35:39.501Z,54.57
2023-08-08T08:37:41.121Z,54.44
2023-08-08T08:39:42.763Z,54.67
2023-08-08T08:41:49.777Z,54.43
2023-08-08T08:43:51.745Z,54.50
2023-08-08T08:45:55.171Z,54.30
2023-08-08T08:47:58.628Z,54.31
2023-08-08T08:50:02.893Z,54.20
2023-08-08T08:52:06.180Z,54.33
2023-08-08T08:54:08.084Z,54.42
2023-08-08T08:56:10.105Z,54.33
2023-08-08T08:58:16.231Z,54.27
2023-08-08T09:00:20.077Z,54.00
2023-08-08T09:02:22.034Z,54.40
2023-08-08T09:04:24.416Z,54.07
2023-08-08T09:06:27.865Z,53.94
2023-08-08T09:08:30.596Z,53.83
2023-08-08T09:10:33.153Z,53.95
2023-08-08T09:12:35.367Z,53.69
2023-08-08T09:14:42.990Z,53.85
2023-08-08T09:16:45.038Z,53.39
2023-08-08T09:18:46.627Z,53.38
2023-08-08T09:20:51.383Z,53.25
2023-08-08T09:22:53.732Z,53.41
2023-08-08T09:24:56.238Z,53.45
2023-08-08T09:26:57.864Z,53.77
2023-08-08T09:28:59.584Z,53.47
2023-08-08T09:31:01.419Z,53.53
2023-08-08T09:33:03.349Z,53.48
2023-08-08T09:35:10.794Z,53.51
2023-08-08T09:37:13.117Z,53.31
2023-08-08T09:39:14.913Z,53.48
2023-08-08T09:41:16.668Z,53.59
2023-08-08T09:43:18.460Z,53.38
2023-08-08T09:45:20.508Z,53.26
2023-08-08T09:47:23.301Z,53.52
2023-08-08T09:49:25.201Z,53.13
2023-08-08T09:51:28.179Z,53.02
2023-08-08T09:53:30.529Z,53.12
2023-08-08T09:55:33.372Z,53.23
2023-08-08T09:57:36.194Z,53.18
2023-08-08T09:59:38.635Z,53.17
2023-08-08T10:01:42.491Z,53.01
2023-08-08T10:03:44.972Z,52.96
2023-08-08T10:05:47.005Z,53.00
2023-08-08T10:07:48.733Z,53.07
2023-08-08T10:09:50.432Z,52.75
2023-08-08T10:11:52.680Z,52.80
2023-08-08T10:13:54.912Z,52.75
2023-08-08T10:15:56.733Z,52.80
2023-08-08T10:17:59.224Z,52.31
2023-08-08T10:20:10.041Z,52.82
2023-08-08T10:22:11.774Z,52.67
2023-08-08T10:24:14.528Z,52.64
2023-08-08T10:26:20.558Z,52.67
2023-08-08T10:28:26.785Z,52.72
2023-08-08T10:30:29.225Z,52.76
2023-08-08T10:32:40.303Z,52.47
2023-08-08T10:34:44.243Z,52.42
2023-08-08T10:36:50.847Z,52.42
2023-08-08T10:38:53.322Z,52.46
2023-08-08T10:40:59.303Z,52.51
2023-08-08T10:43:12.528Z,52.42
2023-08-08T10:45:16.901Z,52.31
2023-08-08T10:47:23.415Z,52.38
2023-08-08T10:49:25.227Z,52.44
2023-08-08T10:51:43.688Z,52.34
2023-08-08T10:53:46.507Z,52.66
2023-08-08T10:55:50.181Z,52.36
2023-08-08T10:58:04.046Z,52.33
2023-08-08T11:00:19.516Z,52.11
2023-08-08T11:02:22.437Z,52.28
2023-08-08T11:04:27.004Z,52.26
2023-08-08T11:06:28.974Z,52.26
2023-08-08T11:08:34.197Z,52.00
2023-08-08T11:10:39.848Z,51.91
2023-08-08T11:12:41.525Z,51.90
2023-08-08T11:14:44.645Z,51.73
2023-08-08T11:16:48.000Z,52.04
2023-08-08T11:18:49.666Z,51.91
2023-08-08T11:20:52.574Z,51.87
2023-08-08T11:22:57.350Z,51.94
2023-08-08T11:25:04.369Z,51.98
2023-08-08T11:27:06.164Z,51.84
2023-08-08T11:29:08.174Z,53.29
2023-08-08T11:31:10.008Z,54.18
2023-08-08T11:33:16.174Z,53.90
2023-08-08T11:35:19.495Z,53.51
2023-08-08T11:37:21.642Z,53.39
2023-08-08T11:39:23.514Z,53.37
2023-08-08T11:41:27.172Z,53.44
2023-08-08T11:43:29.003Z,53.42
2023-08-08T11:45:32.253Z,52.90
2023-08-08T11:47:37.059Z,52.38
2023-08-08T11:49:43.274Z,52.20
2023-08-08T11:51:46.847Z,52.17
2023-08-08T11:53:51.788Z,51.74
2023-08-08T11:55:53.653Z,51.46
2023-08-08T11:57:57.893Z,51.35
2023-08-08T11:59:59.597Z,51.30
2023-08-08T12:02:01.762Z,51.13
2023-08-08T12:04:08.131Z,50.90
2023-08-08T12:06:14.624Z,50.94
2023-08-08T12:08:24.998Z,50.82
2023-08-08T12:10:26.677Z,50.48
2023-08-08T12:12:29.206Z,50.84
2023-08-08T12:14:32.318Z,50.49
2023-08-08T12:16:34.877Z,50.74
2023-08-08T12:18:39.169Z,50.45
2023-08-08T12:20:42.106Z,49.98
2023-08-08T12:22:43.743Z,50.08
2023-08-08T12:24:45.349Z,50.66
2023-08-08T12:26:47.144Z,50.14
2023-08-08T12:28:48.879Z,49.86
2023-08-08T12:30:50.553Z,49.75
2023-08-08T12:32:52.589Z,49.35
2023-08-08T12:34:54.378Z,49.57
2023-08-08T12:36:55.974Z,50.16
2023-08-08T12:41:05.001Z,49.60
2023-08-08T12:43:06.646Z,49.70
2023-08-08T12:45:08.585Z,49.95
2023-08-08T12:47:10.238Z,49.91
2023-08-08T12:53:26.212Z,49.90
2023-08-08T12:55:27.904Z,49.76
2023-08-08T12:57:29.620Z,50.08
2023-08-08T12:59:31.462Z,49.91
2023-08-08T13:03:45.288Z,49.55
2023-08-08T13:05:49.691Z,49.87
2023-08-08T13:07:51.339Z,49.77
2023-08-08T13:09:53.040Z,49.50
2023-08-08T13:11:54.765Z,49.03
2023-08-08T13:13:56.478Z,49.35
2023-08-08T13:18:04.877Z,50.09
2023-08-08T13:20:08.668Z,49.94
2023-08-08T13:22:10.274Z,50.57
2023-08-08T13:24:13.873Z,50.04
2023-08-08T13:26:16.493Z,49.33
2023-08-08T13:28:20.488Z,49.48
2023-08-08T13:30:22.829Z,49.41
2023-08-08T13:32:24.585Z,49.32
2023-08-08T13:34:26.245Z,49.34
2023-08-08T13:36:27.940Z,48.99
2023-08-08T13:38:29.655Z,49.23
2023-08-08T13:40:31.376Z,49.25
2023-08-08T13:42:33.061Z,48.87
2023-08-08T13:44:35.170Z,48.96
2023-08-08T13:46:36.794Z,48.33
2023-08-08T13:48:38.526Z,48.35
2023-08-08T13:50:40.164Z,48.63
2023-08-08T13:52:42.266Z,48.90
2023-08-08T13:54:43.829Z,48.87
2023-08-08T13:56:45.531Z,48.68
2023-08-08T13:58:47.393Z,48.48
2023-08-08T14:00:49.929Z,48.85
2023-08-08T14:02:51.752Z,48.91
2023-08-08T14:04:53.601Z,48.74
2023-08-08T14:06:55.328Z,48.85
2023-08-08T14:08:57.361Z,48.64
2023-08-08T14:10:59.241Z,48.29
2023-08-08T14:13:00.931Z,48.48
2023-08-08T14:17:09.110Z,48.47
2023-08-08T14:19:11.260Z,47.77
2023-08-08T14:21:12.853Z,47.80
2023-08-08T14:23:14.498Z,47.82
2023-08-08T14:25:16.365Z,48.29
2023-08-08T14:27:18.120Z,48.02
2023-08-08T14:29:19.897Z,47.49
2023-08-08T14:31:21.829Z,47.36
2023-08-08T14:33:24.067Z,46.98
2023-08-08T14:41:35.573Z,47.87
2023-08-08T14:43:37.228Z,47.41
2023-08-08T14:45:39.674Z,47.60
2023-08-08T14:49:48.331Z,47.33
2023-08-08T14:51:49.970Z,47.59
2023-08-08T14:53:51.569Z,47.49
2023-08-08T14:55:53.253Z,47.37
2023-08-08T14:57:54.985Z,47.25
2023-08-08T14:59:58.823Z,47.29
2023-08-08T15:02:00.413Z,47.20
2023-08-08T15:04:02.116Z,47.33
2023-08-08T15:06:03.912Z,46.42
2023-08-08T15:08:05.745Z,46.81
2023-08-08T15:10:08.152Z,46.91
2023-08-08T15:14:16.570Z,46.61
2023-08-08T15:16:18.705Z,46.70
2023-08-08T15:18:20.389Z,46.98
2023-08-08T15:20:22.108Z,45.63
2023-08-08T15:22:23.694Z,45.87
2023-08-08T15:24:25.440Z,45.68
2023-08-08T15:26:27.062Z,45.63
2023-08-08T15:28:28.925Z,45.54
2023-08-08T15:30:33.495Z,45.87
2023-08-08T15:32:35.136Z,45.81
2023-08-08T15:34:37.744Z,45.47
2023-08-08T15:36:39.382Z,45.35
2023-08-08T15:38:41.961Z,45.45
2023-08-08T15:40:43.552Z,45.51
2023-08-08T15:42:45.128Z,45.15
2023-08-08T15:44:46.852Z,45.37
2023-08-08T15:46:48.622Z,45.13
2023-08-08T15:48:50.352Z,44.88
2023-08-08T15:50:52.027Z,44.52
2023-08-08T15:52:57.140Z,44.93
2023-08-08T15:54:58.820Z,44.96
2023-08-08T15:57:03.414Z,44.89
2023-08-08T15:59:06.100Z,45.13
2023-08-08T16:01:08.119Z,45.20
2023-08-08T16:03:09.709Z,45.19
2023-08-08T16:05:11.590Z,45.29
2023-08-08T16:07:13.841Z,44.81
2023-08-08T16:09:15.617Z,45.22
2023-08-08T16:11:17.321Z,44.88
2023-08-08T16:13:18.903Z,45.14
2023-08-08T16:15:20.905Z,44.95
2023-08-08T16:17:22.598Z,45.20
2023-08-08T16:19:24.136Z,45.38
2023-08-08T16:21:25.713Z,45.19
2023-08-08T16:23:27.343Z,45.05
2023-08-08T16:25:29.036Z,45.48
2023-08-08T16:27:30.669Z,44.96
2023-08-08T16:29:32.735Z,45.15
2023-08-08T16:31:35.586Z,45.15
2023-08-08T16:33:37.437Z,44.75
2023-08-08T16:35:39.036Z,45.30
2023-08-08T16:37:41.141Z,45.10
2023-08-08T16:39:42.857Z,45.24
2023-08-08T16:41:44.515Z,44.75
2023-08-08T16:43:53.971Z,44.78
2023-08-08T16:45:55.579Z,44.52
2023-08-08T16:47:57.220Z,44.76
2023-08-08T16:49:58.919Z,45.00
2023-08-08T16:52:01.322Z,44.91
2023-08-08T16:54:03.234Z,45.00
2023-08-08T16:56:07.927Z,44.65
2023-08-08T16:58:09.629Z,44.41
2023-08-08T17:00:11.765Z,44.58
2023-08-08T17:02:13.616Z,44.33
2023-08-08T17:04:16.232Z,44.75
2023-08-08T17:06:17.853Z,44.49
2023-08-08T17:08:19.528Z,44.61
2023-08-08T17:10:21.328Z,44.90
2023-08-08T17:12:23.102Z,44.93
2023-08-08T17:14:25.261Z,45.09
2023-08-08T17:16:27.292Z,44.84
2023-08-08T17:18:28.904Z,44.76
2023-08-08T17:20:30.843Z,44.83
2023-08-08T17:22:33.365Z,44.64
2023-08-08T17:24:39.806Z,44.37
2023-08-08T17:26:42.350Z,44.43
2023-08-08T17:28:44.124Z,44.42
2023-08-08T17:30:45.755Z,44.08
2023-08-08T17:32:47.559Z,44.75
2023-08-08T17:34:49.422Z,44.51
2023-08-08T17:36:51.809Z,44.48
2023-08-08T17:38:53.558Z,44.31
2023-08-08T17:40:55.173Z,44.54
2023-08-08T17:42:57.447Z,44.70
2023-08-08T17:44:59.053Z,44.70
2023-08-08T17:47:00.723Z,44.57
2023-08-08T17:49:02.444Z,44.91
2023-08-08T17:51:04.119Z,44.73
2023-08-08T17:53:05.747Z,44.74
2023-08-08T17:55:08.056Z,45.47
2023-08-08T17:57:09.914Z,45.63
2023-08-08T17:59:12.579Z,46.25
2023-08-08T18:01:14.679Z,46.10
2023-08-08T18:03:16.421Z,46.04
2023-08-08T18:05:18.144Z,45.92
2023-08-08T18:07:22.506Z,45.44
2023-08-08T18:09:24.128Z,45.95
2023-08-08T18:11:25.748Z,45.51
2023-08-08T18:13:27.364Z,45.81
2023-08-08T18:15:29.098Z,45.95
2023-08-08T18:17:30.788Z,45.56
2023-08-08T18:19:33.638Z,45.34
2023-08-08T18:21:35.314Z,45.43
2023-08-08T18:23:37.792Z,45.28
2023-08-08T18:25:43.559Z,45.79
2023-08-08T18:27:47.858Z,45.67
2023-08-08T18:29:49.420Z,45.38
2023-08-08T18:31:51.045Z,45.36
2023-08-08T18:34:00.453Z,45.46
2023-08-08T18:36:04.697Z,45.58
2023-08-08T18:38:06.538Z,45.69
2023-08-08T18:40:12.568Z,45.48
2023-08-08T18:42:14.665Z,45.43
2023-08-08T18:44:16.482Z,45.81
2023-08-08T18:46:20.373Z,45.45
2023-08-08T18:48:22.139Z,45.38
2023-08-08T18:50:25.210Z,46.25
2023-08-08T18:52:27.082Z,45.49
2023-08-08T18:54:28.795Z,45.60
2023-08-08T18:56:30.707Z,45.94
2023-08-08T18:58:32.444Z,45.79
2023-08-08T19:00:34.086Z,46.56
2023-08-08T19:02:35.754Z,46.31
2023-08-08T19:04:37.509Z,46.02
2023-08-08T19:06:39.226Z,45.92
2023-08-08T19:08:41.212Z,45.99
2023-08-08T19:10:43.003Z,46.19
2023-08-08T19:12:44.638Z,46.07
2023-08-08T19:14:46.411Z,46.16
2023-08-08T19:16:48.002Z,45.97
2023-08-08T19:18:49.904Z,46.16
2023-08-08T19:20:51.554Z,46.23
2023-08-08T19:22:53.377Z,46.50
2023-08-08T19:24:54.972Z,46.36
2023-08-08T19:26:56.561Z,47.00
2023-08-08T19:28:58.182Z,46.84
2023-08-08T19:30:59.788Z,46.89
2023-08-08T19:33:01.397Z,46.62
2023-08-08T19:35:03.158Z,46.88
2023-08-08T19:37:04.895Z,46.95
2023-08-08T19:39:06.653Z,46.57
2023-08-08T19:41:09.221Z,46.52
2023-08-08T19:47:23.939Z,46.74
2023-08-08T19:49:25.719Z,47.08
2023-08-08T19:51:28.986Z,46.90
2023-08-08T19:53:30.680Z,47.14
2023-08-08T19:55:32.585Z,47.17
2023-08-08T19:57:34.444Z,47.21
2023-08-08T19:59:36.274Z,47.11
2023-08-08T20:01:37.976Z,47.06
2023-08-08T20:03:41.939Z,47.20
2023-08-08T20:05:43.782Z,47.55
2023-08-08T20:07:45.512Z,47.27
2023-08-08T20:09:47.079Z,47.35
2023-08-08T20:11:48.828Z,47.40
2023-08-08T20:13:50.491Z,47.73
2023-08-08T20:15:52.186Z,47.67
2023-08-08T20:17:53.909Z,47.71
2023-08-08T20:19:55.637Z,47.76
2023-08-08T20:21:57.591Z,47.80
2023-08-08T20:23:59.494Z,47.81
2023-08-08T20:26:03.447Z,48.22
2023-08-08T20:28:06.153Z,48.10
2023-08-08T20:30:08.571Z,48.06
2023-08-08T20:32:10.232Z,47.95
2023-08-08T20:34:11.923Z,48.02
2023-08-08T20:36:15.022Z,48.18
2023-08-08T20:38:16.904Z,48.38
2023-08-08T20:40:18.645Z,48.49
2023-08-08T20:42:20.382Z,48.43
2023-08-08T20:44:21.966Z,48.57
2023-08-08T20:46:23.552Z,48.55
2023-08-08T20:48:25.250Z,48.34
2023-08-08T20:50:27.302Z,48.71
2023-08-08T20:52:28.886Z,48.48
2023-08-08T20:54:30.660Z,48.62
2023-08-08T20:56:32.348Z,48.59
2023-08-08T20:58:33.955Z,48.69
2023-08-08T21:00:36.923Z,48.94
2023-08-08T21:02:38.878Z,48.85
2023-08-08T21:04:40.547Z,49.13
2023-08-08T21:06:42.148Z,48.78
2023-08-08T21:08:43.837Z,48.78
2023-08-08T21:10:45.550Z,48.98
2023-08-08T21:12:47.157Z,48.98
2023-08-08T21:14:48.784Z,48.94
2023-08-08T21:16:50.463Z,49.08
2023-08-08T21:18:52.056Z,49.17
2023-08-08T21:20:55.147Z,49.03
2023-08-08T21:22:58.313Z,49.09
2023-08-08T21:24:59.958Z,49.10
2023-08-08T21:27:01.740Z,49.31
2023-08-08T21:29:03.467Z,49.38
2023-08-08T21:31:05.224Z,49.41
2023-08-08T21:33:06.935Z,49.34
2023-08-08T21:35:08.640Z,49.44
2023-08-08T21:37:10.241Z,49.38
2023-08-08T21:39:11.808Z,49.29
2023-08-08T21:41:13.441Z,49.41
2023-08-08T21:43:15.258Z,49.54
2023-08-08T21:45:16.997Z,49.51
2023-08-08T21:47:19.304Z,49.54
2023-08-08T21:49:20.874Z,49.77
2023-08-08T21:51:22.425Z,49.59
2023-08-08T21:53:24.021Z,49.77
2023-08-08T21:55:25.748Z,49.61
2023-08-08T21:57:27.451Z,49.65
2023-08-08T21:59:29.221Z,49.77
2023-08-08T22:01:30.819Z,49.59
2023-08-08T22:03:32.381Z,49.66
2023-08-08T22:05:34.023Z,49.59
2023-08-08T22:07:35.734Z,50.00
2023-08-08T22:09:37.572Z,50.00
2023-08-08T22:11:39.228Z,49.99
2023-08-08T22:13:40.912Z,49.91
2023-08-08T22:15:42.485Z,49.94
2023-08-08T22:17:53.442Z,50.00
2023-08-08T22:20:07.117Z,50.15
2023-08-08T22:22:08.752Z,50.12
2023-08-08T22:24:10.290Z,50.09
2023-08-08T22:26:11.875Z,49.93
2023-08-08T22:28:13.501Z,50.03
2023-08-08T22:32:22.868Z,50.17
2023-08-08T22:34:24.469Z,50.15
2023-08-08T22:36:26.039Z,50.33
2023-08-08T22:38:27.757Z,50.44
2023-08-08T22:40:30.305Z,50.17
2023-08-08T22:42:31.968Z,50.40
2023-08-08T22:44:33.593Z,50.35
2023-08-08T22:46:35.376Z,50.36
2023-08-08T22:48:37.117Z,50.37
2023-08-08T22:50:41.866Z,50.34
2023-08-08T22:52:43.527Z,50.76
2023-08-08T22:54:45.521Z,50.59
2023-08-08T22:56:47.096Z,50.39
2023-08-08T22:58:48.724Z,50.36
2023-08-08T23:00:50.379Z,50.51
2023-08-08T23:02:52.613Z,50.47
2023-08-08T23:04:54.328Z,50.84
2023-08-08T23:06:56.476Z,50.53
2023-08-08T23:08:58.114Z,50.43
2023-08-08T23:11:00.508Z,50.82
2023-08-08T23:13:02.282Z,50.52
2023-08-08T23:15:04.765Z,50.84
2023-08-08T23:17:06.574Z,50.71
2023-08-08T23:19:08.320Z,50.91
2023-08-08T23:21:09.926Z,50.68
2023-08-08T23:23:11.563Z,50.68
2023-08-08T23:25:13.803Z,50.75
2023-08-08T23:27:16.178Z,50.81
2023-08-08T23:31:24.591Z,50.65
2023-08-08T23:33:26.176Z,50.86
2023-08-08T23:35:27.889Z,51.00
2023-08-08T23:37:29.593Z,51.00
2023-08-08T23:39:31.623Z,50.88
2023-08-08T23:41:33.775Z,50.80
2023-08-08T23:43:35.453Z,50.88
2023-08-08T23:45:37.163Z,51.02
2023-08-08T23:47:39.529Z,50.95
2023-08-08T23:49:41.197Z,50.95
2023-08-08T23:51:45.627Z,50.97
2023-08-08T23:53:47.329Z,50.94
2023-08-08T23:55:48.927Z,51.10
2023-08-08T23:57:50.796Z,50.91
2023-08-08T23:59:52.512Z,50.99
